Аэропорт: Алыкель. Норильск

ICAO: UOOO

METAR:
2019/03/24 09:00
UOOO 240900Z 20006MPS 6000 -SHSN DRSN BKN011CB M07/M08 Q1012 R19/492051 NOSIG RMK QFE743/0990
METAR:
2019/03/24 15:21
TAF UOOO 241348Z 2415/2515 21006G12MPS 3100 -SHSN DRSN BKN009CB 
      TEMPO 2415/2423 17009G15MPS 1000 BR SCT004 
     FM242300 19010G16MPS 1200 SHSN BLSN BKN006CB 
      TEMPO 2423/2505 0700 BLSN SCT003 
      TEMPO 2505/2515 20015G20MPS 0300 +SHSN VV001